Time;durP1;ratioP1;P1;durP2;ratioP2;P2;SDS_P1;SDS_P2;PMS_P1;PMS_P2;Temp;Humidity;BMP_temperature;BMP_pressure;BME280_temperature;BME280_humidity;BME280_pressure;Samples;Min_cycle;Max_cycle;Signal;HPM_P1;HPM_P2
2023/01/25 00:02:13;;;;;;;19.63;11.83;;;2.60;99.90;;;;;;6190875;23;20165;-96
2023/01/25 00:04:40;;;;;;;15.03;9.33;;;2.70;99.90;;;;;;6190805;23;20177;-95
2023/01/25 00:07:09;;;;;;;21.10;11.60;;;2.70;99.90;;;;;;6190164;23;20165;-96
2023/01/25 00:09:36;;;;;;;12.37;7.53;;;2.70;99.90;;;;;;6190301;23;20168;-95
2023/01/25 00:12:04;;;;;;;14.63;9.10;;;2.60;99.90;;;;;;6191123;23;20169;-96
2023/01/25 00:14:31;;;;;;;13.17;7.90;;;2.50;99.90;;;;;;6189051;23;20168;-96
2023/01/25 00:16:58;;;;;;;12.43;6.70;;;2.50;99.90;;;;;;6189899;23;20175;-95
2023/01/25 00:19:25;;;;;;;11.43;8.00;;;2.50;99.90;;;;;;6190501;23;20185;-96
2023/01/25 00:21:53;;;;;;;14.87;8.07;;;2.50;99.90;;;;;;6190683;23;20607;-96
2023/01/25 00:24:23;;;;;;;16.20;8.43;;;2.40;99.90;;;;;;6190232;23;20173;-96
2023/01/25 00:26:50;;;;;;;16.57;8.57;;;2.40;1.00;;;;;;6192300;23;20165;-95
2023/01/25 00:29:17;;;;;;;14.47;9.17;;;2.40;1.00;;;;;;6192618;23;20165;-96
2023/01/25 00:32:02;;;;;;;18.47;10.60;;;2.40;1.00;;;;;;6192228;23;20180;-96
2023/01/25 00:34:46;;;;;;;16.60;9.53;;;2.40;1.00;;;;;;6192705;23;20161;-95
2023/01/25 00:37:30;;;;;;;17.93;10.33;;;2.40;1.00;;;;;;6193496;23;20230;-96
2023/01/25 00:39:59;;;;;;;15.90;10.10;;;2.50;1.00;;;;;;6191124;23;20192;-96
2023/01/25 00:42:26;;;;;;;16.27;9.60;;;2.60;1.00;;;;;;6192097;23;20173;-96
2023/01/25 00:44:53;;;;;;;15.13;9.60;;;2.60;1.00;;;;;;6192272;23;20169;-95
2023/01/25 00:47:21;;;;;;;14.63;9.30;;;2.50;1.00;;;;;;6188799;23;20638;-95
2023/01/25 00:49:49;;;;;;;16.93;9.80;;;2.50;1.00;;;;;;6187796;23;20650;-96
2023/01/25 00:52:17;;;;;;;16.00;9.27;;;2.50;1.00;;;;;;6188102;23;20173;-95
2023/01/25 00:54:44;;;;;;;14.50;8.87;;;2.50;1.00;;;;;;6189033;23;20229;-96
2023/01/25 00:57:12;;;;;;;15.20;9.33;;;2.50;1.00;;;;;;6189602;23;20615;-95
2023/01/25 00:59:43;;;;;;;14.43;9.53;;;2.50;1.00;;;;;;6188737;23;20181;-95
2023/01/25 01:02:10;;;;;;;14.83;9.00;;;2.50;1.00;;;;;;6188794;23;20165;-96
2023/01/25 01:04:38;;;;;;;13.30;8.80;;;2.50;1.00;;;;;;6187902;23;20165;-96
2023/01/25 01:07:05;;;;;;;16.47;9.27;;;2.50;1.00;;;;;;6188991;23;20546;-96
2023/01/25 01:09:33;;;;;;;13.80;8.37;;;2.50;1.00;;;;;;6190231;23;20495;-95
2023/01/25 01:12:00;;;;;;;13.20;7.53;;;2.50;1.00;;;;;;6190788;23;20261;-95
2023/01/25 01:14:29;;;;;;;11.93;7.70;;;2.50;1.00;;;;;;6191503;23;20223;-96
2023/01/25 01:16:56;;;;;;;12.40;8.17;;;2.40;1.00;;;;;;6187412;23;20180;-96
2023/01/25 01:19:24;;;;;;;11.93;7.57;;;2.40;1.00;;;;;;6161133;23;20188;-96
2023/01/25 01:21:51;;;;;;;15.90;7.60;;;2.40;1.00;;;;;;6161007;23;20174;-96
2023/01/25 01:24:18;;;;;;;12.30;7.37;;;2.40;1.00;;;;;;6160270;23;20626;-96
2023/01/25 01:26:46;;;;;;;11.83;7.13;;;2.40;1.00;;;;;;6161697;23;20628;-96
2023/01/25 01:29:13;;;;;;;12.87;7.57;;;2.40;1.00;;;;;;6161096;23;20218;-96
2023/01/25 01:31:42;;;;;;;12.37;7.13;;;2.30;1.00;;;;;;6161082;23;20183;-96
2023/01/25 01:34:13;;;;;;;11.43;7.50;;;2.30;1.00;;;;;;6160193;23;20168;-96
2023/01/25 01:36:40;;;;;;;13.63;7.53;;;2.30;1.00;;;;;;6160845;23;20591;-95
2023/01/25 01:39:07;;;;;;;13.27;8.03;;;2.30;1.00;;;;;;6160172;23;20188;-96
2023/01/25 01:41:35;;;;;;;12.83;8.03;;;2.40;1.00;;;;;;6161153;23;20172;-95
2023/01/25 01:44:02;;;;;;;13.83;7.97;;;2.30;1.00;;;;;;6161030;23;20176;-96
2023/01/25 01:46:36;;;;;;;12.83;7.90;;;2.30;1.00;;;;;;6170574;23;20170;-96
2023/01/25 01:49:10;;;;;;;10.93;6.80;;;2.30;1.00;;;;;;6174817;23;20159;-96
2023/01/25 01:51:46;;;;;;;10.63;7.10;;;2.20;1.00;;;;;;6174735;23;20179;-96
2023/01/25 01:54:17;;;;;;;11.27;7.10;;;2.20;1.00;;;;;;6174732;23;20232;-96
2023/01/25 01:56:52;;;;;;;14.20;7.70;;;2.30;1.00;;;;;;6173821;23;20188;-96
2023/01/25 01:59:22;;;;;;;14.83;8.10;;;2.30;1.00;;;;;;6172952;23;20196;-96
2023/01/25 02:01:50;;;;;;;12.53;7.57;;;2.30;1.00;;;;;;6174282;23;20193;-96
2023/01/25 02:04:23;;;;;;;9.97;6.77;;;2.30;1.00;;;;;;6172859;23;20172;-96
2023/01/25 02:06:56;;;;;;;12.30;7.67;;;2.30;1.00;;;;;;6172585;23;20170;-96
2023/01/25 02:09:26;;;;;;;9.87;7.00;;;2.30;1.00;;;;;;6172890;23;20169;-96
2023/01/25 02:11:54;;;;;;;9.67;6.57;;;2.30;1.00;;;;;;6174415;23;20227;-96
2023/01/25 02:14:23;;;;;;;12.57;7.30;;;2.30;1.00;;;;;;6174149;23;20200;-96
2023/01/25 02:16:50;;;;;;;11.77;7.40;;;2.20;1.00;;;;;;6176140;23;20173;-96
2023/01/25 02:19:40;;;;;;;11.47;7.13;;;2.30;1.00;;;;;;6201293;23;20191;-96
2023/01/25 02:22:12;;;;;;;12.20;7.23;;;2.30;1.00;;;;;;6200478;23;20161;-96
2023/01/25 02:24:43;;;;;;;12.83;7.60;;;2.30;1.00;;;;;;6200852;23;20162;-96
2023/01/25 02:27:12;;;;;;;10.40;7.20;;;2.20;1.00;;;;;;6199292;23;20187;-96
2023/01/25 02:29:41;;;;;;;10.77;7.00;;;2.30;1.00;;;;;;6197395;23;20217;-96
2023/01/25 02:32:08;;;;;;;11.60;6.27;;;2.20;1.00;;;;;;6199287;23;20172;-96
2023/01/25 02:34:36;;;;;;;10.40;6.73;;;2.20;1.00;;;;;;6197884;23;20606;-96
2023/01/25 02:37:03;;;;;;;11.53;7.00;;;2.20;1.00;;;;;;6197715;23;20198;-96
2023/01/25 02:39:31;;;;;;;10.97;7.17;;;2.20;1.00;;;;;;6186346;23;20202;-95
2023/01/25 02:44:44;;;;;;;11.33;7.10;;;2.20;1.00;;;;;;6202322;23;20178;-96
2023/01/25 02:47:12;;;;;;;11.67;6.97;;;2.20;1.00;;;;;;6199223;23;20180;-96
2023/01/25 02:49:39;;;;;;;9.90;6.00;;;2.20;1.00;;;;;;6198696;23;20173;-96
2023/01/25 02:52:06;;;;;;;13.83;7.63;;;2.20;1.00;;;;;;6197247;23;20175;-96
2023/01/25 02:54:34;;;;;;;9.97;6.50;;;2.10;1.00;;;;;;6195075;23;20190;-96
2023/01/25 02:57:01;;;;;;;10.37;6.43;;;2.10;1.00;;;;;;6196307;23;20254;-95
2023/01/25 02:59:29;;;;;;;11.30;7.03;;;2.10;1.00;;;;;;6194605;23;20188;-96
2023/01/25 03:01:57;;;;;;;11.00;6.73;;;2.10;1.00;;;;;;6193325;23;20172;-96
2023/01/25 03:04:25;;;;;;;10.40;7.20;;;2.10;1.00;;;;;;6194927;23;20485;-96
2023/01/25 03:06:52;;;;;;;12.00;7.60;;;2.10;1.00;;;;;;6195804;23;20172;-96
2023/01/25 03:09:19;;;;;;;9.83;6.77;;;2.20;1.00;;;;;;6195108;23;20620;-96
2023/01/25 03:11:47;;;;;;;12.27;8.13;;;2.20;1.00;;;;;;6195978;23;20617;-96
2023/01/25 03:14:14;;;;;;;11.07;6.80;;;2.30;1.00;;;;;;6197256;23;20207;-96
2023/01/25 03:16:41;;;;;;;12.37;7.00;;;2.30;1.00;;;;;;6196518;23;20169;-96
2023/01/25 03:19:11;;;;;;;11.23;6.83;;;2.30;1.00;;;;;;6195763;23;20194;-96
2023/01/25 03:21:40;;;;;;;11.30;6.67;;;2.40;1.00;;;;;;6196535;23;20222;-96
2023/01/25 03:24:10;;;;;;;10.10;6.47;;;2.40;1.00;;;;;;6195409;23;20176;-96
2023/01/25 03:27:09;;;;;;;10.10;6.70;;;2.40;1.00;;;;;;6195885;23;20246;-96
2023/01/25 03:29:24;;;;;;;9.17;6.53;;;2.40;1.00;;;;;;6195111;23;20176;-96
2023/01/25 03:31:51;;;;;;;12.17;6.40;;;2.40;1.00;;;;;;6193926;23;20184;-96
2023/01/25 03:34:20;;;;;;;11.13;5.93;;;2.40;99.90;;;;;;6192795;23;20171;-95
2023/01/25 03:36:47;;;;;;;12.73;6.83;;;2.30;99.90;;;;;;6192650;23;20173;-96
2023/01/25 03:39:15;;;;;;;9.23;6.10;;;2.20;1.00;;;;;;6191073;23;20188;-96
2023/01/25 03:41:42;;;;;;;11.33;6.57;;;2.20;1.00;;;;;;6191012;23;20184;-96
2023/01/25 03:44:10;;;;;;;10.20;6.43;;;2.20;1.00;;;;;;6192725;23;20174;-96
2023/01/25 03:46:37;;;;;;;10.57;6.57;;;2.20;1.00;;;;;;6192620;23;20180;-96
2023/01/25 03:49:05;;;;;;;18.53;7.90;;;2.30;1.00;;;;;;6192458;23;20168;-96
2023/01/25 03:51:34;;;;;;;15.33;8.07;;;2.30;1.00;;;;;;6193137;23;20169;-96
2023/01/25 03:54:01;;;;;;;18.47;8.50;;;2.40;1.00;;;;;;6191839;23;20172;-96
2023/01/25 03:56:28;;;;;;;13.07;8.00;;;2.40;1.00;;;;;;6190286;23;20169;-96
2023/01/25 03:58:56;;;;;;;13.93;8.63;;;2.40;1.00;;;;;;6192229;23;20198;-96
2023/01/25 04:01:23;;;;;;;11.77;7.47;;;2.40;1.00;;;;;;6191076;23;20176;-96
2023/01/25 04:03:51;;;;;;;12.13;7.30;;;2.40;1.00;;;;;;6191143;23;20635;-96
2023/01/25 04:06:19;;;;;;;11.50;7.37;;;2.40;99.90;;;;;;6190269;23;20173;-96
2023/01/25 04:08:47;;;;;;;9.67;7.03;;;2.30;99.90;;;;;;6191970;23;20165;-96
2023/01/25 04:11:15;;;;;;;11.83;6.60;;;2.40;1.00;;;;;;6192421;23;20176;-96
2023/01/25 04:13:42;;;;;;;10.50;6.70;;;2.30;1.00;;;;;;6193523;23;20166;-95
2023/01/25 04:16:11;;;;;;;10.20;6.67;;;2.30;1.00;;;;;;6194109;23;20170;-96
2023/01/25 04:18:39;;;;;;;10.97;6.57;;;2.30;1.00;;;;;;6192939;23;20571;-96
2023/01/25 04:21:07;;;;;;;13.80;8.13;;;2.30;1.00;;;;;;6191862;23;20651;-95
2023/01/25 04:23:34;;;;;;;14.63;9.17;;;2.30;1.00;;;;;;6189593;23;20176;-96
2023/01/25 04:26:05;;;;;;;13.90;8.93;;;2.30;1.00;;;;;;6189046;23;20172;-96
2023/01/25 04:28:33;;;;;;;12.33;7.53;;;2.40;1.00;;;;;;6190974;23;20162;-96
2023/01/25 04:31:02;;;;;;;10.47;6.93;;;2.30;1.00;;;;;;6192651;23;20169;-96
2023/01/25 04:33:30;;;;;;;11.30;7.13;;;2.30;99.90;;;;;;6192044;23;20180;-95
2023/01/25 04:35:57;;;;;;;10.77;6.73;;;2.30;1.00;;;;;;6191342;23;20170;-96
2023/01/25 04:38:24;;;;;;;15.47;7.27;;;2.30;1.00;;;;;;6189664;23;20189;-96
2023/01/25 04:40:52;;;;;;;12.03;7.10;;;2.30;1.00;;;;;;6190558;23;20193;-96
2023/01/25 04:43:23;;;;;;;12.90;7.40;;;2.30;1.00;;;;;;6191087;23;20176;-96
2023/01/25 04:45:50;;;;;;;11.73;7.13;;;2.30;1.00;;;;;;6190042;23;20607;-96
2023/01/25 04:48:18;;;;;;;11.10;6.93;;;2.30;1.00;;;;;;6189081;23;20166;-96
2023/01/25 04:50:46;;;;;;;13.30;7.77;;;2.40;1.00;;;;;;6189122;23;20163;-96
2023/01/25 04:53:14;;;;;;;12.03;7.37;;;2.40;1.00;;;;;;6189037;23;20631;-95
2023/01/25 04:55:44;;;;;;;12.03;7.40;;;2.40;1.00;;;;;;6189043;23;20220;-96
2023/01/25 04:58:11;;;;;;;13.03;8.07;;;2.40;1.00;;;;;;6189774;23;20175;-96
2023/01/25 05:00:40;;;;;;;13.00;7.77;;;2.30;1.00;;;;;;6189212;23;20181;-96
2023/01/25 05:03:07;;;;;;;11.20;6.77;;;2.30;1.00;;;;;;6190176;23;20177;-96
2023/01/25 05:05:34;;;;;;;11.27;6.97;;;2.30;1.00;;;;;;6188542;23;20166;-96
2023/01/25 05:08:01;;;;;;;11.17;6.97;;;2.30;1.00;;;;;;6188437;23;20172;-96
2023/01/25 05:10:28;;;;;;;10.13;6.80;;;2.30;1.00;;;;;;6188209;23;20161;-96
2023/01/25 05:12:55;;;;;;;10.13;6.30;;;2.30;1.00;;;;;;6187933;23;20180;-96
2023/01/25 05:15:22;;;;;;;11.97;7.20;;;2.30;1.00;;;;;;6187947;23;20176;-96
2023/01/25 05:17:51;;;;;;;11.00;7.13;;;2.30;1.00;;;;;;6188054;23;20193;-96
2023/01/25 05:20:18;;;;;;;12.57;7.43;;;2.30;1.00;;;;;;6187969;23;20192;-95
2023/01/25 05:22:45;;;;;;;16.17;7.63;;;2.30;1.00;;;;;;6187863;23;20170;-96
2023/01/25 05:27:53;;;;;;;18.43;8.17;;;2.30;1.00;;;;;;6185799;23;20176;-96
2023/01/25 05:30:20;;;;;;;14.70;8.90;;;2.30;1.00;;;;;;6187430;23;20169;-96
2023/01/25 05:32:49;;;;;;;15.77;9.13;;;2.30;1.00;;;;;;6184692;23;20175;-96
2023/01/25 05:35:18;;;;;;;13.40;7.53;;;2.30;1.00;;;;;;6186414;23;20173;-96
2023/01/25 05:37:45;;;;;;;13.33;6.87;;;2.30;1.00;;;;;;6186434;23;20676;-96
2023/01/25 05:40:13;;;;;;;12.57;7.60;;;2.30;1.00;;;;;;6187148;23;20182;-96
2023/01/25 05:42:40;;;;;;;15.00;8.80;;;2.20;1.00;;;;;;6187557;23;20239;-96
2023/01/25 05:45:09;;;;;;;13.43;7.80;;;2.30;1.00;;;;;;6187051;23;20169;-95
2023/01/25 05:47:36;;;;;;;15.80;8.97;;;2.30;1.00;;;;;;6186604;23;20169;-95
2023/01/25 05:50:03;;;;;;;16.07;9.10;;;2.30;1.00;;;;;;6186857;23;20174;-95
2023/01/25 05:52:31;;;;;;;21.73;10.53;;;2.30;1.00;;;;;;6186964;23;20172;-96
2023/01/25 05:54:58;;;;;;;18.50;9.83;;;2.20;1.00;;;;;;6186808;23;20223;-96
2023/01/25 05:57:27;;;;;;;20.67;13.30;;;2.20;1.00;;;;;;6186951;23;20487;-96
2023/01/25 05:59:54;;;;;;;27.23;15.50;;;2.20;1.00;;;;;;6186951;23;20267;-96
2023/01/25 06:02:21;;;;;;;25.07;14.47;;;2.30;1.00;;;;;;6187373;23;20187;-95
2023/01/25 06:04:48;;;;;;;16.27;10.10;;;2.30;1.00;;;;;;6186709;23;20232;-96
2023/01/25 06:07:15;;;;;;;13.90;7.97;;;2.30;1.00;;;;;;6186920;23;20180;-94
2023/01/25 16:51:19;;;;;;;40.70;20.07;;;2.60;1.00;;;;;;6173707;23;20247;-89
2023/01/25 16:53:46;;;;;;;31.03;15.07;;;2.60;1.00;;;;;;6183148;23;20595;-90
2023/01/25 16:56:18;;;;;;;32.80;15.37;;;2.60;1.00;;;;;;6186573;23;20254;-90
2023/01/25 16:58:46;;;;;;;31.97;15.60;;;2.60;1.00;;;;;;6184567;23;20175;-90
2023/01/25 17:01:14;;;;;;;35.17;16.47;;;2.60;1.00;;;;;;6183422;23;20197;-91
2023/01/25 17:03:41;;;;;;;45.37;21.87;;;2.60;1.00;;;;;;6182951;23;20172;-91
2023/01/25 17:06:18;;;;;;;39.50;19.57;;;2.60;1.00;;;;;;6185550;23;20656;-90
2023/01/25 17:08:46;;;;;;;38.43;17.27;;;2.60;1.00;;;;;;6186190;23;20637;-91
2023/01/25 17:11:14;;;;;;;42.37;19.60;;;2.50;48.10;;;;;;6187453;23;20170;-91
2023/01/25 17:13:41;;;;;;;38.33;17.90;;;2.60;99.90;;;;;;6187841;23;20199;-91
2023/01/25 17:16:08;;;;;;;38.17;17.97;;;2.60;99.90;;;;;;6187227;23;20162;-90
2023/01/25 17:18:34;;;;;;;39.67;17.57;;;2.60;99.90;;;;;;6187183;23;20171;-90
2023/01/25 17:21:03;;;;;;;38.57;18.97;;;2.70;99.90;;;;;;6186827;23;20189;-91
2023/01/25 17:23:31;;;;;;;38.00;18.80;;;2.70;99.90;;;;;;6186667;23;20173;-90
2023/01/25 17:26:02;;;;;;;40.43;17.57;;;2.70;82.10;;;;;;6186979;23;20651;-91
2023/01/25 17:28:29;;;;;;;38.63;17.20;;;2.70;54.40;;;;;;6187498;23;20211;-90
2023/01/25 17:30:55;;;;;;;38.60;17.20;;;2.70;64.50;;;;;;6186318;23;20165;-91
2023/01/25 17:33:22;;;;;;;38.23;18.23;;;2.70;96.10;;;;;;6185222;23;20168;-90
2023/01/25 17:35:49;;;;;;;44.63;19.97;;;2.70;99.90;;;;;;6184665;23;20271;-90
2023/01/25 17:38:17;;;;;;;43.63;19.90;;;2.70;99.90;;;;;;6184275;23;20173;-91
2023/01/25 17:40:44;;;;;;;41.93;18.97;;;2.70;99.90;;;;;;6185582;23;20187;-91
2023/01/25 17:43:12;;;;;;;40.13;18.00;;;2.70;99.90;;;;;;6184777;23;20252;-91
2023/01/25 17:45:39;;;;;;;42.77;18.10;;;2.70;99.90;;;;;;6185338;23;20173;-90
2023/01/25 17:48:07;;;;;;;163.17;53.33;;;2.70;99.90;;;;;;6185610;23;20200;-89
2023/01/25 17:50:35;;;;;;;39.60;18.27;;;2.70;99.90;;;;;;6185584;23;20235;-90
2023/01/25 17:53:02;;;;;;;40.63;18.27;;;2.70;99.90;;;;;;6184390;23;20184;-90
2023/01/25 17:55:29;;;;;;;43.87;18.07;;;2.70;99.90;;;;;;6183098;23;20189;-90
2023/01/25 17:57:56;;;;;;;51.47;20.37;;;2.70;99.90;;;;;;6183339;23;20627;-90
2023/01/25 18:00:24;;;;;;;42.57;18.47;;;2.70;99.90;;;;;;6183722;23;20169;-90
2023/01/25 18:02:52;;;;;;;46.10;19.97;;;2.70;99.90;;;;;;6184731;23;20187;-90
2023/01/25 18:05:19;;;;;;;44.30;20.13;;;2.70;99.90;;;;;;6184025;23;20514;-90
2023/01/25 18:07:46;;;;;;;39.57;17.53;;;2.70;99.90;;;;;;6183979;23;20170;-91
2023/01/25 18:10:13;;;;;;;35.13;16.27;;;2.70;99.90;;;;;;6185118;23;20639;-91
2023/01/25 18:12:40;;;;;;;45.43;21.43;;;2.60;99.90;;;;;;6184051;23;20176;-90
2023/01/25 18:15:08;;;;;;;47.27;20.77;;;2.60;99.90;;;;;;6184924;23;20638;-91
2023/01/25 18:17:37;;;;;;;52.57;24.90;;;2.60;99.90;;;;;;6185329;23;20170;-91
2023/01/25 18:20:09;;;;;;;50.27;23.80;;;2.60;99.90;;;;;;6185197;23;20166;-91
2023/01/25 18:22:36;;;;;;;47.80;22.83;;;2.60;99.90;;;;;;6185859;23;20174;-91
2023/01/25 18:25:04;;;;;;;50.23;25.40;;;2.60;99.90;;;;;;6186668;23;20171;-90
2023/01/25 18:27:30;;;;;;;60.40;27.80;;;2.60;99.90;;;;;;6186030;23;20248;-91
2023/01/25 18:30:01;;;;;;;69.53;31.83;;;2.60;99.90;;;;;;6186047;23;20172;-90
2023/01/25 18:32:31;;;;;;;71.97;31.67;;;2.60;99.90;;;;;;6185484;23;20637;-90
2023/01/25 18:34:59;;;;;;;62.20;29.80;;;2.70;99.90;;;;;;6185050;23;20207;-91
2023/01/25 18:37:32;;;;;;;49.47;21.97;;;2.70;99.90;;;;;;6186387;23;20649;-90
2023/01/25 18:39:59;;;;;;;53.00;23.30;;;2.60;99.90;;;;;;6186128;23;20482;-92
2023/01/25 18:42:27;;;;;;;52.03;26.27;;;2.60;99.90;;;;;;6186040;23;20211;-90
2023/01/25 18:44:54;;;;;;;56.23;25.40;;;2.60;99.90;;;;;;6185958;23;20212;-91
2023/01/25 18:47:22;;;;;;;58.80;28.03;;;2.70;99.90;;;;;;6185964;23;20175;-91
2023/01/25 18:49:50;;;;;;;53.63;24.60;;;2.60;99.90;;;;;;6186010;23;20197;-91
2023/01/25 18:52:20;;;;;;;43.83;18.67;;;2.70;99.90;;;;;;6186589;23;20172;-90
2023/01/25 18:54:47;;;;;;;47.50;22.53;;;2.70;99.90;;;;;;6186379;23;20155;-90
2023/01/25 18:57:15;;;;;;;53.47;24.13;;;2.60;99.90;;;;;;6186166;23;20633;-90
2023/01/25 18:59:42;;;;;;;45.47;19.20;;;2.60;99.90;;;;;;6185481;23;20173;-90
2023/01/25 19:02:11;;;;;;;39.83;17.17;;;2.60;1.00;;;;;;6186198;23;20228;-91
2023/01/25 19:04:38;;;;;;;41.90;18.33;;;2.60;1.00;;;;;;6186519;23;20169;-90
2023/01/25 19:07:05;;;;;;;44.90;20.17;;;2.60;1.00;;;;;;6186258;23;20170;-90
2023/01/25 19:09:33;;;;;;;40.70;18.27;;;2.60;1.00;;;;;;6185899;23;20175;-90
2023/01/25 19:12:00;;;;;;;46.70;18.77;;;2.50;1.00;;;;;;6186055;23;20166;-92
2023/01/25 19:14:26;;;;;;;42.93;18.43;;;2.50;1.00;;;;;;6185135;23;20187;-90
2023/01/25 19:16:53;;;;;;;43.63;19.63;;;2.50;1.00;;;;;;6185214;23;20168;-90
2023/01/25 19:19:20;;;;;;;44.10;20.97;;;2.50;1.00;;;;;;6185597;23;20172;-90
2023/01/25 19:21:48;;;;;;;46.00;21.27;;;2.50;1.00;;;;;;6185601;23;20185;-90
2023/01/25 19:24:16;;;;;;;52.50;23.37;;;2.50;1.00;;;;;;6186137;23;20173;-90
2023/01/25 19:26:44;;;;;;;52.83;23.57;;;2.50;1.00;;;;;;6185480;23;20587;-90
2023/01/25 19:29:13;;;;;;;51.23;22.37;;;2.50;1.00;;;;;;6185849;23;20196;-90
2023/01/25 19:31:40;;;;;;;40.37;18.23;;;2.50;1.00;;;;;;6185887;23;20168;-90
2023/01/25 19:34:07;;;;;;;43.07;17.80;;;2.60;1.00;;;;;;6185801;23;20180;-89
2023/01/25 19:36:36;;;;;;;37.20;16.37;;;2.60;1.00;;;;;;6184858;23;20627;-89
2023/01/25 19:39:04;;;;;;;41.77;16.63;;;2.60;1.00;;;;;;6184904;23;20252;-89
2023/01/25 19:41:31;;;;;;;43.60;17.87;;;2.60;1.00;;;;;;6185518;23;20192;-90
2023/01/25 19:44:01;;;;;;;45.63;18.73;;;2.60;1.00;;;;;;6185131;23;20169;-90
2023/01/25 19:46:30;;;;;;;48.87;20.33;;;2.60;1.00;;;;;;6186347;23;20173;-90
2023/01/25 19:49:00;;;;;;;60.43;22.13;;;2.60;1.00;;;;;;6187053;23;20196;-89
2023/01/25 19:51:29;;;;;;;61.27;27.67;;;2.60;1.00;;;;;;6186874;23;20194;-89
2023/01/25 19:53:58;;;;;;;52.80;22.10;;;2.60;1.00;;;;;;6186932;23;20179;-90
2023/01/25 19:56:27;;;;;;;58.50;22.73;;;2.60;1.00;;;;;;6186864;23;20192;-90
2023/01/25 19:58:54;;;;;;;63.23;24.07;;;2.60;1.00;;;;;;6186181;23;20619;-89
2023/01/25 20:01:23;;;;;;;52.13;19.90;;;2.60;1.00;;;;;;6187008;23;20192;-90
2023/01/25 20:03:51;;;;;;;52.63;21.27;;;2.60;1.00;;;;;;6187243;23;20200;-90
2023/01/25 20:06:19;;;;;;;45.67;21.77;;;2.60;1.00;;;;;;6186399;23;20623;-90
2023/01/25 20:08:47;;;;;;;51.63;19.97;;;2.60;1.00;;;;;;6187235;23;20503;-90
2023/01/25 20:11:16;;;;;;;50.50;20.30;;;2.60;1.00;;;;;;6186780;23;20179;-90
2023/01/25 20:13:43;;;;;;;50.83;19.10;;;2.60;1.00;;;;;;6187467;23;20263;-90
2023/01/25 20:16:12;;;;;;;46.13;18.73;;;2.70;1.00;;;;;;6187027;23;20173;-89
2023/01/25 20:18:40;;;;;;;46.33;20.20;;;2.60;1.00;;;;;;6187176;23;20560;-89
2023/01/25 20:21:10;;;;;;;48.23;20.80;;;2.60;1.00;;;;;;6186416;23;20176;-90
2023/01/25 20:23:39;;;;;;;55.40;19.33;;;2.60;1.00;;;;;;6186792;23;20235;-90
2023/01/25 20:26:07;;;;;;;51.83;20.30;;;2.60;1.00;;;;;;6187088;23;20176;-90
2023/01/25 20:28:36;;;;;;;55.90;22.13;;;2.60;1.00;;;;;;6186095;23;20484;-90
2023/01/25 20:31:04;;;;;;;54.70;22.63;;;2.60;1.00;;;;;;6186395;23;20171;-90
2023/01/25 20:33:31;;;;;;;64.80;24.00;;;2.60;1.00;;;;;;6187032;23;20629;-89
2023/01/25 20:36:05;;;;;;;75.00;28.00;;;2.60;1.00;;;;;;6186841;23;20172;-90
2023/01/25 20:38:32;;;;;;;79.33;32.27;;;2.60;1.00;;;;;;6186796;23;20158;-89
2023/01/25 20:40:59;;;;;;;84.10;31.63;;;2.70;1.00;;;;;;6186230;23;20172;-90
2023/01/25 20:43:28;;;;;;;74.80;28.37;;;2.70;1.00;;;;;;6185695;23;20176;-90
2023/01/25 20:45:55;;;;;;;71.20;24.07;;;2.80;1.00;;;;;;6186387;23;20499;-89
2023/01/25 20:48:22;;;;;;;77.73;23.93;;;2.80;1.00;;;;;;6186926;23;20162;-89
2023/01/25 20:50:49;;;;;;;64.43;24.57;;;2.80;1.00;;;;;;6185004;23;20272;-89
2023/01/25 20:53:18;;;;;;;70.50;27.93;;;2.80;1.00;;;;;;6185863;23;20247;-89
2023/01/25 20:55:45;;;;;;;67.53;26.07;;;2.80;1.00;;;;;;6186562;23;20194;-89
2023/01/25 20:58:12;;;;;;;59.90;24.60;;;2.70;1.00;;;;;;6185416;23;20192;-90
2023/01/25 21:00:38;;;;;;;50.77;21.03;;;2.70;1.00;;;;;;6186912;23;20173;-89
2023/01/25 21:03:05;;;;;;;56.23;22.33;;;2.70;1.00;;;;;;6186185;23;20189;-89
2023/01/25 21:05:32;;;;;;;61.17;22.57;;;2.70;1.00;;;;;;6186176;23;20175;-90
2023/01/25 21:07:59;;;;;;;61.57;23.77;;;2.70;1.00;;;;;;6186957;23;20169;-90
2023/01/25 21:10:27;;;;;;;74.47;27.43;;;2.70;1.00;;;;;;6186552;23;20179;-89
2023/01/25 21:12:54;;;;;;;71.53;28.37;;;2.70;1.00;;;;;;6186925;23;20498;-90
2023/01/25 21:15:21;;;;;;;81.77;28.70;;;2.70;1.00;;;;;;6186521;23;20176;-89
2023/01/25 21:17:51;;;;;;;76.00;26.77;;;2.70;1.00;;;;;;6185830;23;20174;-89
2023/01/25 21:20:18;;;;;;;47.70;19.30;;;2.70;1.00;;;;;;6186274;23;20674;-89
2023/01/25 21:22:45;;;;;;;47.33;17.87;;;2.70;1.00;;;;;;6186679;23;20565;-89
2023/01/25 21:25:12;;;;;;;46.73;17.50;;;2.70;1.00;;;;;;6186028;23;20173;-89
2023/01/25 21:27:40;;;;;;;43.90;17.53;;;2.60;1.00;;;;;;6186375;23;20233;-89
2023/01/25 21:30:09;;;;;;;47.30;17.60;;;2.60;1.00;;;;;;6185805;23;20168;-90
2023/01/25 21:32:35;;;;;;;46.73;19.23;;;2.60;1.00;;;;;;6186489;23;20172;-89
2023/01/25 21:35:02;;;;;;;49.17;19.73;;;2.60;1.00;;;;;;6186554;23;20179;-89
2023/01/25 21:37:29;;;;;;;54.43;19.90;;;2.60;1.00;;;;;;6186640;23;20181;-89
2023/01/25 21:39:56;;;;;;;52.07;19.93;;;2.60;30.00;;;;;;6185583;23;20173;-89
2023/01/25 21:42:22;;;;;;;53.87;20.17;;;2.60;48.70;;;;;;6186040;23;20186;-90
2023/01/25 21:47:35;;;;;;;55.40;21.43;;;2.60;88.40;;;;;;6186327;23;20602;-90
2023/01/25 21:52:46;;;;;;;65.63;23.40;;;2.60;96.70;;;;;;6186083;23;20208;-89
2023/01/25 21:55:13;;;;;;;60.10;23.63;;;2.60;56.20;;;;;;6185385;23;20503;-90
2023/01/25 21:57:45;;;;;;;48.80;20.93;;;2.70;2.70;;;;;;6186344;23;20178;-89
2023/01/25 22:00:15;;;;;;;45.87;17.83;;;2.60;1.00;;;;;;6186485;23;20596;-89
2023/01/25 22:02:43;;;;;;;48.37;19.03;;;2.60;1.00;;;;;;6186147;23;20243;-89
2023/01/25 22:05:10;;;;;;;44.73;17.80;;;2.60;7.40;;;;;;6185856;23;20179;-89
2023/01/25 22:07:37;;;;;;;44.20;17.20;;;2.50;99.90;;;;;;6186110;23;20173;-90
2023/01/25 22:10:04;;;;;;;48.37;18.93;;;2.50;99.90;;;;;;6185554;23;20172;-90
2023/01/25 22:12:31;;;;;;;52.37;20.73;;;2.50;99.90;;;;;;6186436;23;20180;-90
2023/01/25 22:14:58;;;;;;;60.43;21.17;;;2.50;99.90;;;;;;6186092;23;20198;-89
2023/01/25 22:17:27;;;;;;;45.20;15.70;;;2.50;99.90;;;;;;6185953;23;20169;-89
2023/01/25 22:19:54;;;;;;;45.97;16.27;;;2.50;99.90;;;;;;6186448;23;20172;-89
2023/01/25 22:22:20;;;;;;;57.10;22.67;;;2.50;99.90;;;;;;6185584;23;20184;-90
2023/01/25 22:24:47;;;;;;;64.17;23.33;;;2.50;99.90;;;;;;6185356;23;20168;-90
2023/01/25 22:27:37;;;;;;;50.93;19.50;;;2.50;99.90;;;;;;6185643;23;20173;-90
2023/01/25 22:30:05;;;;;;;49.53;19.70;;;2.40;99.90;;;;;;6186158;23;20239;-89
2023/01/25 22:32:33;;;;;;;35.20;14.77;;;2.50;99.90;;;;;;6186061;23;20168;-89
2023/01/25 22:35:00;;;;;;;34.77;15.40;;;2.40;99.90;;;;;;6186081;23;20176;-90
2023/01/25 22:37:26;;;;;;;38.33;14.20;;;2.50;99.90;;;;;;6185603;23;20176;-89
2023/01/25 22:39:57;;;;;;;40.43;14.73;;;2.40;99.90;;;;;;6185704;23;20623;-89
2023/01/25 22:42:24;;;;;;;38.97;15.77;;;2.40;99.90;;;;;;6185594;23;20187;-90
2023/01/25 22:44:51;;;;;;;39.67;15.83;;;2.50;99.90;;;;;;6185590;23;20169;-89
2023/01/25 22:47:18;;;;;;;46.57;15.87;;;2.50;99.90;;;;;;6185931;23;20245;-89
2023/01/25 22:49:46;;;;;;;48.03;16.87;;;2.50;99.90;;;;;;6185831;23;20705;-90
2023/01/25 22:52:13;;;;;;;47.70;17.10;;;2.50;99.90;;;;;;6185706;23;20150;-88
2023/01/25 22:54:39;;;;;;;54.30;17.47;;;2.50;99.90;;;;;;6185377;23;20167;-89
2023/01/25 22:57:06;;;;;;;54.37;17.27;;;2.50;99.90;;;;;;6185399;23;20170;-89
2023/01/25 22:59:33;;;;;;;61.73;17.60;;;2.50;99.90;;;;;;6185900;23;20240;-90
2023/01/25 23:02:00;;;;;;;61.37;19.47;;;2.50;99.90;;;;;;6185769;23;20197;-89
2023/01/25 23:04:27;;;;;;;56.33;17.83;;;2.50;99.90;;;;;;6185763;23;20176;-89
2023/01/25 23:07:11;;;;;;;54.13;20.30;;;2.50;99.90;;;;;;6185197;23;20616;-90
2023/01/25 23:09:39;;;;;;;49.67;17.30;;;2.50;99.90;;;;;;6185551;23;20169;-89
2023/01/25 23:12:06;;;;;;;51.50;16.13;;;2.40;99.90;;;;;;6185269;23;20161;-90
2023/01/25 23:14:52;;;;;;;53.27;16.47;;;2.40;99.90;;;;;;6185514;23;20547;-89
2023/01/25 23:20:06;;;;;;;40.73;13.63;;;2.50;99.90;;;;;;6185624;23;20153;-88
2023/01/25 23:22:34;;;;;;;44.77;15.00;;;2.50;99.90;;;;;;6187361;23;20193;-89
2023/01/25 23:25:01;;;;;;;50.57;14.30;;;2.50;99.90;;;;;;6187557;23;20180;-89
2023/01/25 23:27:28;;;;;;;44.67;14.97;;;2.40;99.90;;;;;;6187916;23;20171;-89
2023/01/25 23:29:55;;;;;;;40.57;15.63;;;2.40;99.90;;;;;;6187618;23;20162;-90
2023/01/25 23:32:22;;;;;;;41.30;14.83;;;2.40;1.00;;;;;;6187248;23;20507;-89
2023/01/25 23:34:52;;;;;;;49.77;14.87;;;2.40;1.00;;;;;;6187315;23;20207;-90
2023/01/25 23:37:20;;;;;;;46.43;14.87;;;2.50;1.00;;;;;;6187921;23;20258;-89
2023/01/25 23:39:50;;;;;;;43.83;14.30;;;2.40;1.00;;;;;;6187275;23;20641;-90
2023/01/25 23:42:18;;;;;;;38.20;12.53;;;2.40;1.00;;;;;;6187148;23;20188;-89
2023/01/25 23:44:44;;;;;;;37.50;12.47;;;2.40;99.90;;;;;;6187731;23;20481;-90
2023/01/25 23:47:11;;;;;;;33.80;12.87;;;2.40;99.90;;;;;;6187206;23;20173;-89
2023/01/25 23:49:38;;;;;;;40.23;13.40;;;2.40;99.90;;;;;;6187215;23;20171;-90